createdAt,value
2023-04-23T00:03:02.592Z,48.69
2023-04-23T00:08:03.406Z,48.25
2023-04-23T00:13:02.776Z,48.59
2023-04-23T00:18:03.070Z,48.55
2023-04-23T00:23:02.250Z,48.73
2023-04-23T00:28:01.067Z,48.23
2023-04-23T00:33:00.039Z,47.57
2023-04-23T00:38:00.453Z,48.09
2023-04-23T00:42:59.561Z,48.14
2023-04-23T00:47:59.626Z,47.83
2023-04-23T00:52:58.679Z,47.53
2023-04-23T00:57:58.888Z,51.53
2023-04-23T01:02:58.574Z,51.43
2023-04-23T01:07:57.876Z,52.86
2023-04-23T01:12:58.231Z,52.06
2023-04-23T01:17:58.602Z,50.91
2023-04-23T01:22:58.792Z,50.36
2023-04-23T01:27:58.306Z,50.25
2023-04-23T01:32:57.927Z,50.27
2023-04-23T01:38:00.864Z,50.17
2023-04-23T01:43:00.379Z,50.22
2023-04-23T01:47:59.582Z,50.58
2023-04-23T01:52:59.828Z,50.85
2023-04-23T01:57:58.784Z,50.92
2023-04-23T02:02:57.688Z,51.39
2023-04-23T02:07:56.669Z,51.58
2023-04-23T02:12:56.881Z,51.70
2023-04-23T02:17:55.697Z,51.38
2023-04-23T02:22:55.062Z,52.02
2023-04-23T02:27:54.088Z,52.76
2023-04-23T02:32:54.267Z,52.39
2023-04-23T02:37:54.349Z,52.79
2023-04-23T02:42:53.102Z,52.43
2023-04-23T02:47:53.729Z,52.68
2023-04-23T02:52:52.929Z,52.66
2023-04-23T02:57:52.030Z,52.56
2023-04-23T03:02:51.181Z,52.84
2023-04-23T03:07:51.496Z,52.77
2023-04-23T03:12:50.416Z,53.08
2023-04-23T03:17:49.302Z,52.93
2023-04-23T03:22:48.207Z,52.70
2023-04-23T03:27:48.904Z,52.70
2023-04-23T03:32:52.459Z,52.65
2023-04-23T03:37:54.861Z,52.85
2023-04-23T03:43:01.145Z,52.71
2023-04-23T03:48:21.000Z,52.77
2023-04-23T03:53:20.190Z,52.75
2023-04-23T03:58:43.031Z,52.70
2023-04-23T04:03:42.090Z,52.54
2023-04-23T04:08:41.839Z,52.89
2023-04-23T04:13:40.591Z,52.56
2023-04-23T04:18:40.738Z,52.57
2023-04-23T04:23:39.996Z,52.34
2023-04-23T04:28:38.709Z,52.61
2023-04-23T04:33:39.869Z,52.29
2023-04-23T04:38:39.995Z,52.34
2023-04-23T04:43:39.150Z,52.41
2023-04-23T04:48:37.857Z,52.39
2023-04-23T04:53:37.171Z,52.06
2023-04-23T04:58:37.597Z,51.77
2023-04-23T05:03:37.939Z,51.62
2023-04-23T05:08:37.001Z,51.72
2023-04-23T05:13:37.234Z,51.53
2023-04-23T05:18:36.335Z,51.36
2023-04-23T05:23:35.711Z,51.44
2023-04-23T05:28:34.805Z,51.39
2023-04-23T05:33:46.322Z,51.44
2023-04-23T05:38:50.660Z,50.85
2023-04-23T05:43:50.821Z,50.35
2023-04-23T05:48:56.432Z,49.81
2023-04-23T05:53:57.448Z,50.50
2023-04-23T05:58:57.169Z,51.40
2023-04-23T06:03:57.990Z,51.19
2023-04-23T06:09:04.707Z,50.79
2023-04-23T06:14:04.236Z,50.82
2023-04-23T06:19:04.845Z,50.30
2023-04-23T06:24:03.910Z,51.11
2023-04-23T06:29:03.915Z,50.96
2023-04-23T06:34:15.740Z,51.04
2023-04-23T06:39:16.448Z,50.74
2023-04-23T06:44:16.149Z,50.19
2023-04-23T06:49:28.030Z,50.72
2023-04-23T06:54:32.544Z,51.13
2023-04-23T06:59:33.590Z,50.68
2023-04-23T07:04:40.208Z,50.46
2023-04-23T07:09:39.546Z,50.79
2023-04-23T07:14:45.323Z,48.14
2023-04-23T07:20:04.289Z,43.36
2023-04-23T07:25:04.453Z,42.46
2023-04-23T07:30:08.844Z,41.67
2023-04-23T07:35:15.332Z,41.05
2023-04-23T07:40:19.639Z,41.30
2023-04-23T07:45:19.539Z,39.62
2023-04-23T07:50:26.371Z,39.27
2023-04-23T07:55:26.903Z,37.73
2023-04-23T08:00:30.936Z,38.15
2023-04-23T08:05:31.483Z,36.94
2023-04-23T08:10:36.667Z,37.19
2023-04-23T08:15:38.269Z,36.65
2023-04-23T08:20:42.331Z,36.26
2023-04-23T08:25:46.516Z,35.19
2023-04-23T08:30:50.895Z,35.32
2023-04-23T08:35:58.260Z,34.51
2023-04-23T08:41:04.426Z,33.81
2023-04-23T08:46:09.361Z,31.31
2023-04-23T08:51:22.541Z,31.95
2023-04-23T08:56:23.291Z,29.50
2023-04-23T09:01:26.902Z,26.22
2023-04-23T09:06:42.745Z,26.62
2023-04-23T09:11:43.135Z,24.78
2023-04-23T09:16:50.369Z,24.29
2023-04-23T09:21:56.273Z,23.35
2023-04-23T09:26:59.301Z,21.03
2023-04-23T09:32:10.681Z,20.28
2023-04-23T09:37:19.100Z,19.99
2023-04-23T09:42:18.371Z,20.36
2023-04-23T09:47:19.307Z,19.72
2023-04-23T09:52:24.973Z,18.80
2023-04-23T09:57:28.239Z,18.27
2023-04-23T10:02:30.411Z,17.96
2023-04-23T10:07:33.945Z,17.84
2023-04-23T10:12:53.726Z,18.49
2023-04-23T10:17:54.564Z,18.58
2023-04-23T10:22:57.996Z,18.14
2023-04-23T10:27:59.477Z,17.82
2023-04-23T10:33:04.021Z,16.02
2023-04-23T10:38:04.907Z,17.12
2023-04-23T10:43:04.340Z,18.13
2023-04-23T10:48:04.528Z,16.65
2023-04-23T10:53:05.382Z,17.71
2023-04-23T10:58:06.508Z,16.68
2023-04-23T11:03:05.534Z,16.16
2023-04-23T11:08:18.799Z,15.56
2023-04-23T11:13:23.580Z,14.59
2023-04-23T11:18:25.238Z,14.91
2023-04-23T11:23:34.010Z,21.43
2023-04-23T11:28:36.470Z,25.70
2023-04-23T11:33:38.708Z,26.42
2023-04-23T11:38:38.934Z,24.78
2023-04-23T11:43:44.092Z,27.77
2023-04-23T11:48:47.391Z,29.36
2023-04-23T11:53:48.235Z,29.71
2023-04-23T11:58:49.720Z,28.08
2023-04-23T12:03:50.999Z,26.19
2023-04-23T12:08:51.239Z,18.20
2023-04-23T12:13:50.960Z,18.94
2023-04-23T12:18:55.125Z,17.85
2023-04-23T12:23:55.355Z,23.83
2023-04-23T12:28:54.571Z,21.52
2023-04-23T12:34:00.656Z,25.13
2023-04-23T12:39:23.613Z,20.35
2023-04-23T12:44:23.243Z,18.17
2023-04-23T12:49:21.960Z,18.93
2023-04-23T12:54:22.360Z,19.51
2023-04-23T12:59:22.320Z,15.96
2023-04-23T13:04:24.127Z,22.01
2023-04-23T13:09:29.787Z,18.23
2023-04-23T13:14:36.494Z,15.65
2023-04-23T13:19:39.948Z,17.18
2023-04-23T13:24:43.255Z,16.25
2023-04-23T13:29:56.193Z,15.28
2023-04-23T13:35:02.348Z,13.16
2023-04-23T13:40:10.699Z,15.69
2023-04-23T13:45:26.124Z,13.86
2023-04-23T13:50:26.814Z,12.59
2023-04-23T13:55:27.069Z,14.35
2023-04-23T14:00:28.580Z,11.82
2023-04-23T14:05:27.331Z,11.74
2023-04-23T14:10:28.170Z,13.02
2023-04-23T14:15:26.986Z,14.29
2023-04-23T14:20:25.834Z,13.21
2023-04-23T14:25:31.243Z,9.79
2023-04-23T14:30:31.684Z,13.37
2023-04-23T14:35:41.860Z,11.86
2023-04-23T14:40:43.359Z,10.53
2023-04-23T14:45:42.419Z,13.43
2023-04-23T14:50:43.561Z,11.74
2023-04-23T14:55:49.986Z,12.77
2023-04-23T15:00:49.672Z,11.94
2023-04-23T15:05:48.563Z,12.97
2023-04-23T15:10:48.952Z,12.94
2023-04-23T15:15:54.204Z,14.42
2023-04-23T15:20:57.031Z,15.21
2023-04-23T15:25:57.508Z,12.56
2023-04-23T15:30:57.144Z,13.44
2023-04-23T15:35:59.396Z,13.81
2023-04-23T15:41:02.772Z,12.74
2023-04-23T15:46:13.293Z,13.78
2023-04-23T15:51:13.757Z,13.94
2023-04-23T15:56:15.628Z,14.00
2023-04-23T16:01:21.902Z,14.98
2023-04-23T16:06:29.096Z,14.99
2023-04-23T16:11:30.785Z,15.43
2023-04-23T16:16:33.529Z,15.94
2023-04-23T16:21:32.909Z,18.74
2023-04-23T16:26:42.149Z,19.93
2023-04-23T16:31:48.829Z,22.11
2023-04-23T16:36:55.576Z,20.95
2023-04-23T16:41:59.873Z,23.51
2023-04-23T16:46:59.164Z,20.73
2023-04-23T16:51:57.920Z,21.71
2023-04-23T16:56:58.738Z,22.29
2023-04-23T17:01:57.849Z,22.93
2023-04-23T17:06:56.734Z,24.02
2023-04-23T17:11:56.826Z,25.23
2023-04-23T17:16:57.467Z,26.14
2023-04-23T17:21:56.801Z,26.52
2023-04-23T17:26:55.548Z,27.62
2023-04-23T17:31:54.409Z,28.14
2023-04-23T17:36:54.596Z,28.52
2023-04-23T17:41:53.345Z,29.27
2023-04-23T17:46:54.725Z,29.81
2023-04-23T17:51:55.266Z,30.63
2023-04-23T17:56:54.320Z,31.52
2023-04-23T18:01:53.156Z,31.42
2023-04-23T18:06:51.983Z,32.42
2023-04-23T18:11:52.314Z,32.59
2023-04-23T18:16:51.167Z,33.35
2023-04-23T18:21:50.745Z,33.87
2023-04-23T18:26:52.183Z,35.39
2023-04-23T18:31:53.898Z,35.88
2023-04-23T18:36:56.521Z,36.75
2023-04-23T18:41:56.018Z,37.58
2023-04-23T18:46:56.742Z,37.96
2023-04-23T18:51:55.817Z,38.44
2023-04-23T18:56:54.811Z,38.49
2023-04-23T19:01:53.780Z,39.55
2023-04-23T19:06:54.007Z,39.82
2023-04-23T19:11:54.921Z,39.80
2023-04-23T19:16:58.652Z,40.51
2023-04-23T19:22:00.098Z,40.14
2023-04-23T19:27:00.190Z,40.28
2023-04-23T19:31:59.182Z,40.57
2023-04-23T19:37:01.065Z,40.55
2023-04-23T19:42:02.723Z,40.86
2023-04-23T19:47:05.893Z,40.99
2023-04-23T19:52:10.034Z,40.65
2023-04-23T19:57:09.907Z,40.66
2023-04-23T20:02:12.766Z,40.56
2023-04-23T20:07:13.556Z,40.70
2023-04-23T20:12:13.960Z,41.59
2023-04-23T20:17:14.127Z,41.33
2023-04-23T20:22:14.535Z,41.84
2023-04-23T20:27:13.653Z,42.60
2023-04-23T20:32:12.804Z,42.49
2023-04-23T20:37:12.725Z,42.65
2023-04-23T20:42:13.397Z,42.75
2023-04-23T20:47:13.216Z,42.92
2023-04-23T20:52:14.028Z,42.55
2023-04-23T20:57:15.185Z,42.88
2023-04-23T21:02:15.452Z,43.17
2023-04-23T21:07:14.354Z,43.32
2023-04-23T21:12:14.623Z,43.06
2023-04-23T21:17:13.428Z,42.92
2023-04-23T21:22:12.212Z,43.45
2023-04-23T21:27:11.829Z,43.37
2023-04-23T21:32:12.056Z,43.20
2023-04-23T21:37:10.956Z,43.40
2023-04-23T21:42:09.749Z,44.16
2023-04-23T21:47:08.570Z,44.64
2023-04-23T21:52:09.557Z,44.63
2023-04-23T21:57:10.187Z,44.54
2023-04-23T22:02:09.075Z,44.24
2023-04-23T22:07:12.574Z,44.12
2023-04-23T22:12:11.972Z,44.15
2023-04-23T22:17:10.847Z,44.46
2023-04-23T22:22:10.964Z,44.59
2023-04-23T22:27:09.863Z,44.20
2023-04-23T22:32:08.663Z,44.21
2023-04-23T22:37:07.803Z,44.01
2023-04-23T22:42:08.046Z,43.88
2023-04-23T22:47:06.949Z,43.68
2023-04-23T22:52:05.880Z,44.18
2023-04-23T22:57:05.056Z,44.69
2023-04-23T23:02:05.287Z,45.08
2023-04-23T23:07:04.196Z,45.04
2023-04-23T23:13:00.889Z,45.67
2023-04-23T23:18:01.254Z,45.65
2023-04-23T23:23:00.273Z,44.93
2023-04-23T23:27:58.998Z,44.99
2023-04-23T23:32:58.033Z,44.93
2023-04-23T23:37:58.079Z,44.31
2023-04-23T23:42:57.062Z,43.68
2023-04-23T23:47:56.428Z,43.71
2023-04-23T23:52:56.780Z,43.23
2023-04-23T23:57:57.613Z,43.28
